Time;durP1;ratioP1;P1;durP2;ratioP2;P2;SDS_P1;SDS_P2;PMS_P1;PMS_P2;Temp;Humidity;BMP_temperature;BMP_pressure;BME280_temperature;BME280_humidity;BME280_pressure;Samples;Min_cycle;Max_cycle;Signal;HPM_P1;HPM_P2
2024/01/10 00:01:35;;;;;;;4.15;3.35;;;-4.00;99.90;;;;;;5064153;28;20063;-73
2024/01/10 00:04:01;;;;;;;6.35;4.43;;;-4.00;99.90;;;;;;5070324;28;20459;-73
2024/01/10 00:06:27;;;;;;;5.30;4.95;;;-3.90;99.90;;;;;;5046739;28;20379;-73
2024/01/10 00:08:53;;;;;;;4.63;3.75;;;-4.00;99.90;;;;;;5061969;28;20124;-74
2024/01/10 00:11:19;;;;;;;2.78;2.58;;;-4.00;99.90;;;;;;5052231;28;20044;-72
2024/01/10 00:13:44;;;;;;;5.50;3.90;;;-4.00;99.90;;;;;;5067200;28;20044;-74
2024/01/10 00:16:14;;;;;;;8.88;4.93;;;-4.00;99.90;;;;;;5052101;28;20044;-72
2024/01/10 00:18:40;;;;;;;5.60;4.00;;;-4.00;99.90;;;;;;5064194;28;20082;-72
2024/01/10 00:21:07;;;;;;;5.32;4.38;;;-4.00;99.90;;;;;;5067833;28;20036;-72
2024/01/10 00:23:32;;;;;;;5.13;4.00;;;-4.10;99.90;;;;;;5069080;28;20040;-73
2024/01/10 00:25:58;;;;;;;5.10;4.60;;;-4.10;99.90;;;;;;5047461;28;20466;-72
2024/01/10 00:28:25;;;;;;;4.15;3.83;;;-4.10;99.90;;;;;;5061060;28;20838;-72
2024/01/10 00:30:51;;;;;;;6.18;3.92;;;-4.10;99.90;;;;;;5068048;28;20064;-73
2024/01/10 00:33:16;;;;;;;5.90;4.15;;;-4.10;99.90;;;;;;5044672;28;20049;-73
2024/01/10 00:35:42;;;;;;;4.65;4.25;;;-4.10;99.90;;;;;;5057501;28;20048;-73
2024/01/10 00:38:08;;;;;;;5.82;4.57;;;-4.10;99.90;;;;;;5061852;28;20040;-73
2024/01/10 00:40:34;;;;;;;7.78;4.93;;;-4.20;99.90;;;;;;5067590;28;20530;-73
2024/01/10 00:43:00;;;;;;;3.13;2.78;;;-4.20;99.90;;;;;;5042738;28;20040;-73
2024/01/10 00:45:25;;;;;;;5.95;4.78;;;-4.20;99.90;;;;;;5053365;28;20040;-73
2024/01/10 00:47:51;;;;;;;6.00;4.55;;;-4.20;99.90;;;;;;5059820;28;20049;-73
2024/01/10 00:50:17;;;;;;;4.15;3.78;;;-4.20;99.90;;;;;;5064482;28;20044;-73
2024/01/10 00:52:44;;;;;;;4.13;3.47;;;-4.30;99.90;;;;;;5059713;28;20052;-73
2024/01/10 00:55:10;;;;;;;3.08;2.83;;;-4.30;99.90;;;;;;5068596;28;20143;-73
2024/01/10 00:57:37;;;;;;;2.80;2.60;;;-4.30;99.90;;;;;;5046354;28;20111;-73
2024/01/10 01:00:07;;;;;;;4.35;3.95;;;-4.30;99.90;;;;;;5073577;28;20037;-73
2024/01/10 01:02:33;;;;;;;4.18;3.78;;;-4.30;99.90;;;;;;5062491;28;20097;-73
2024/01/10 01:04:59;;;;;;;2.50;2.35;;;-4.30;99.90;;;;;;5065671;28;20053;-73
2024/01/10 01:07:24;;;;;;;2.25;2.13;;;-4.40;99.90;;;;;;5050043;28;20052;-74
2024/01/10 01:09:50;;;;;;;3.63;3.20;;;-4.40;99.90;;;;;;5062705;28;20048;-73
2024/01/10 01:12:16;;;;;;;3.05;2.90;;;-4.40;99.90;;;;;;5059243;28;20803;-73
2024/01/10 01:14:41;;;;;;;3.72;2.88;;;-4.40;99.90;;;;;;5055102;28;22757;-73
2024/01/10 01:17:07;;;;;;;3.53;2.83;;;-4.40;99.90;;;;;;5046803;28;20101;-74
2024/01/10 01:19:33;;;;;;;4.97;3.42;;;-4.40;99.90;;;;;;5057488;28;20506;-73
2024/01/10 01:21:58;;;;;;;5.53;5.03;;;-4.40;99.90;;;;;;5065748;28;20082;-73
2024/01/10 01:24:24;;;;;;;5.25;4.35;;;-4.40;99.90;;;;;;5062404;28;20032;-73
2024/01/10 01:26:50;;;;;;;2.53;2.33;;;-4.40;99.90;;;;;;5058737;28;20040;-73
2024/01/10 01:29:16;;;;;;;8.20;5.43;;;-4.40;99.90;;;;;;5046751;28;20052;-73
2024/01/10 01:31:41;;;;;;;3.35;3.10;;;-4.40;99.90;;;;;;5067215;28;20127;-74
2024/01/10 01:34:07;;;;;;;4.47;3.60;;;-4.40;99.90;;;;;;5062549;28;20178;-74
2024/01/10 01:36:34;;;;;;;6.07;3.05;;;-4.40;99.90;;;;;;5048228;28;20074;-73
2024/01/10 01:38:59;;;;;;;2.95;2.78;;;-4.40;99.90;;;;;;5047217;28;20045;-74
2024/01/10 01:41:25;;;;;;;2.83;2.63;;;-4.40;99.90;;;;;;5064958;28;20029;-74
2024/01/10 01:43:51;;;;;;;2.67;2.47;;;-4.40;99.90;;;;;;5064847;28;20033;-74
2024/01/10 01:46:17;;;;;;;4.25;2.97;;;-4.50;99.90;;;;;;5049595;28;20040;-72
2024/01/10 01:48:43;;;;;;;1.95;1.85;;;-4.50;99.90;;;;;;5065962;28;20052;-72
2024/01/10 01:51:09;;;;;;;3.55;2.50;;;-4.50;99.90;;;;;;5047433;28;20040;-72
2024/01/10 01:53:36;;;;;;;2.45;2.33;;;-4.50;99.90;;;;;;5065354;28;20604;-73
2024/01/10 01:56:06;;;;;;;0.70;0.70;;;-4.50;99.90;;;;;;5059214;28;20036;-72
2024/01/10 01:58:32;;;;;;;0.80;0.80;;;-4.50;99.90;;;;;;5058050;28;20045;-72
2024/01/10 02:00:59;;;;;;;4.72;3.50;;;-4.60;99.90;;;;;;5035667;28;20025;-72
2024/01/10 02:03:26;;;;;;;0.60;0.60;;;-4.60;99.90;;;;;;5052877;28;20032;-72
2024/01/10 02:05:53;;;;;;;2.78;2.50;;;-4.60;99.90;;;;;;5051976;28;20051;-72
2024/01/10 02:08:19;;;;;;;0.60;0.60;;;-4.60;99.90;;;;;;5052650;28;20083;-72
2024/01/10 02:10:44;;;;;;;2.80;2.55;;;-4.70;99.90;;;;;;5069616;28;20076;-73
2024/01/10 02:13:11;;;;;;;0.70;0.70;;;-4.70;99.90;;;;;;5049465;28;20040;-73
2024/01/10 02:15:38;;;;;;;0.40;0.40;;;-4.70;99.90;;;;;;5059026;28;20052;-73
2024/01/10 02:18:05;;;;;;;4.88;2.17;;;-4.60;99.90;;;;;;5063096;28;20071;-72
2024/01/10 02:20:31;;;;;;;2.88;2.42;;;-4.60;99.90;;;;;;5065347;28;20029;-72
2024/01/10 02:22:57;;;;;;;3.03;2.53;;;-4.70;99.90;;;;;;5059956;28;20036;-72
2024/01/10 02:25:23;;;;;;;2.92;2.75;;;-4.60;99.90;;;;;;5057060;28;20041;-72
2024/01/10 02:27:48;;;;;;;0.77;0.77;;;-4.60;99.90;;;;;;5066256;28;20402;-73
2024/01/10 02:30:14;;;;;;;1.52;1.42;;;-4.60;99.90;;;;;;5053815;28;20056;-73
2024/01/10 02:32:40;;;;;;;1.85;1.77;;;-4.60;99.90;;;;;;5064049;28;20043;-72
2024/01/10 02:35:06;;;;;;;0.30;0.30;;;-4.60;99.90;;;;;;5065676;28;20044;-72
2024/01/10 02:37:32;;;;;;;3.65;3.30;;;-4.60;99.90;;;;;;5062294;28;20032;-72
2024/01/10 02:39:58;;;;;;;0.50;0.50;;;-4.60;99.90;;;;;;5067510;28;20510;-72
2024/01/10 02:42:23;;;;;;;1.02;1.00;;;-4.60;99.90;;;;;;5069309;28;20036;-72
2024/01/10 02:44:49;;;;;;;1.05;1.05;;;-4.50;99.90;;;;;;5054833;28;20029;-72
2024/01/10 02:47:15;;;;;;;0.40;0.40;;;-4.60;99.90;;;;;;5069474;28;20703;-72
2024/01/10 02:49:41;;;;;;;11.10;6.40;;;-4.60;99.90;;;;;;5059888;28;20036;-72
2024/01/10 02:52:06;;;;;;;0.50;0.50;;;-4.60;99.90;;;;;;5065873;28;20075;-72
2024/01/10 02:54:32;;;;;;;6.68;4.07;;;-4.60;99.90;;;;;;5066042;28;20053;-73
2024/01/10 02:56:58;;;;;;;0.95;0.95;;;-4.60;99.90;;;;;;5052552;28;20044;-73
2024/01/10 02:59:23;;;;;;;2.88;2.50;;;-4.60;99.90;;;;;;5060266;28;20037;-72
2024/01/10 03:01:49;;;;;;;1.02;1.02;;;-4.60;99.90;;;;;;5063504;28;20097;-73
2024/01/10 03:04:15;;;;;;;0.65;0.65;;;-4.60;99.90;;;;;;5051226;28;20142;-72
2024/01/10 03:06:40;;;;;;;0.40;0.40;;;-4.70;99.90;;;;;;5065495;28;20036;-72
2024/01/10 03:09:06;;;;;;;9.80;8.93;;;-4.70;99.90;;;;;;5068415;28;20115;-72
2024/01/10 03:11:34;;;;;;;3.20;3.00;;;-4.70;99.90;;;;;;5062564;28;20127;-74
2024/01/10 03:14:08;;;;;;;0.50;0.50;;;-4.70;99.90;;;;;;5044168;28;20043;-73
2024/01/10 03:16:34;;;;;;;0.40;0.40;;;-4.70;99.90;;;;;;5049783;28;20059;-73
2024/01/10 03:19:00;;;;;;;11.45;10.65;;;-4.70;99.90;;;;;;5049567;28;20033;-72
2024/01/10 03:21:26;;;;;;;0.52;0.52;;;-4.70;99.90;;;;;;5062538;28;20103;-73
2024/01/10 03:24:00;;;;;;;5.25;4.20;;;-4.70;99.90;;;;;;5059344;28;20036;-73
2024/01/10 03:26:27;;;;;;;0.50;0.50;;;-4.70;99.90;;;;;;5069568;28;20037;-73
2024/01/10 03:28:53;;;;;;;8.40;5.05;;;-4.70;99.90;;;;;;5065588;28;20037;-74
2024/01/10 03:31:20;;;;;;;0.43;0.43;;;-4.70;99.90;;;;;;5071768;28;20033;-73
2024/01/10 03:33:46;;;;;;;1.88;1.00;;;-4.70;99.90;;;;;;5041176;28;20028;-73
2024/01/10 03:36:13;;;;;;;0.63;0.63;;;-4.70;99.90;;;;;;5063963;28;20028;-73
2024/01/10 03:38:39;;;;;;;10.07;9.57;;;-4.70;99.90;;;;;;5062758;28;20049;-73
2024/01/10 03:41:05;;;;;;;3.25;3.15;;;-4.70;99.90;;;;;;5052590;28;20502;-73
2024/01/10 03:43:31;;;;;;;0.43;0.43;;;-4.70;99.90;;;;;;5051439;28;20036;-74
2024/01/10 03:45:57;;;;;;;1.00;1.00;;;-4.70;99.90;;;;;;5069389;28;20032;-73
2024/01/10 03:48:23;;;;;;;0.50;0.50;;;-4.80;99.90;;;;;;5052507;28;20494;-73
2024/01/10 03:50:49;;;;;;;12.18;6.22;;;-4.80;99.90;;;;;;5059064;28;20040;-73
2024/01/10 03:53:15;;;;;;;0.40;0.40;;;-4.80;99.90;;;;;;5048493;28;20037;-74
2024/01/10 03:55:41;;;;;;;0.50;0.50;;;-4.80;99.90;;;;;;5046131;28;20468;-74
2024/01/10 03:58:06;;;;;;;6.40;4.88;;;-4.80;99.90;;;;;;5046735;28;20032;-74
2024/01/10 04:00:32;;;;;;;1.10;1.00;;;-4.90;99.90;;;;;;5050998;28;20703;-73
2024/01/10 04:02:57;;;;;;;0.60;0.60;;;-4.90;99.90;;;;;;5050222;28;20482;-74
2024/01/10 04:05:25;;;;;;;2.70;1.38;;;-4.90;99.90;;;;;;5063726;28;20036;-74
2024/01/10 04:07:51;;;;;;;4.00;3.70;;;-4.90;99.90;;;;;;5052802;28;20040;-75
2024/01/10 04:10:18;;;;;;;5.57;5.07;;;-4.90;99.90;;;;;;5076155;28;20414;-72
2024/01/10 04:12:44;;;;;;;8.40;4.22;;;-4.90;99.90;;;;;;5066889;28;20049;-73
2024/01/10 04:15:11;;;;;;;5.65;5.15;;;-4.90;99.90;;;;;;5051450;28;20127;-73
2024/01/10 04:17:37;;;;;;;1.45;1.45;;;-4.90;99.90;;;;;;5064645;28;20041;-73
2024/01/10 04:20:03;;;;;;;5.15;4.65;;;-5.00;99.90;;;;;;5064118;28;20086;-73
2024/01/10 04:22:29;;;;;;;4.72;4.25;;;-4.90;99.90;;;;;;5071092;28;20128;-73
2024/01/10 04:24:59;;;;;;;10.10;3.70;;;-5.00;99.90;;;;;;5070833;28;20072;-74
2024/01/10 04:27:25;;;;;;;3.67;3.38;;;-5.00;99.90;;;;;;5067805;28;20545;-72
2024/01/10 04:29:51;;;;;;;4.82;4.38;;;-5.00;99.90;;;;;;5066422;28;20527;-72
2024/01/10 04:32:17;;;;;;;3.67;3.38;;;-5.00;99.90;;;;;;5064414;28;20041;-72
2024/01/10 04:34:44;;;;;;;1.48;1.38;;;-5.10;99.90;;;;;;5065100;28;21431;-72
2024/01/10 04:37:09;;;;;;;1.95;1.95;;;-5.10;99.90;;;;;;5065988;28;20061;-72
2024/01/10 04:39:35;;;;;;;2.50;2.20;;;-5.10;99.90;;;;;;5058777;28;20516;-72
2024/01/10 04:42:02;;;;;;;6.60;3.13;;;-5.10;99.90;;;;;;5063821;28;20055;-72
2024/01/10 04:44:28;;;;;;;0.40;0.40;;;-5.00;99.90;;;;;;5060004;28;20037;-72
2024/01/10 04:46:54;;;;;;;1.15;1.05;;;-5.10;99.90;;;;;;5047942;28;20052;-72
2024/01/10 04:49:19;;;;;;;1.45;1.35;;;-5.10;99.90;;;;;;5055697;28;20052;-72
2024/01/10 04:51:46;;;;;;;1.48;1.40;;;-5.10;99.90;;;;;;5062977;28;20098;-72
2024/01/10 04:54:12;;;;;;;4.70;3.78;;;-5.10;99.90;;;;;;5045213;28;20036;-72
2024/01/10 04:56:38;;;;;;;27.20;24.70;;;-5.10;99.90;;;;;;5056713;28;20123;-72
2024/01/10 04:59:04;;;;;;;1.48;1.38;;;-5.10;99.90;;;;;;5047024;28;20041;-72
2024/01/10 05:01:30;;;;;;;10.10;5.38;;;-5.10;99.90;;;;;;5048635;28;20047;-74
2024/01/10 05:03:56;;;;;;;12.35;11.02;;;-5.00;99.90;;;;;;5046607;28;20086;-72
2024/01/10 05:06:22;;;;;;;6.65;5.25;;;-5.10;99.90;;;;;;5061173;28;20037;-72
2024/01/10 05:08:47;;;;;;;5.53;2.00;;;-5.10;99.90;;;;;;5042616;28;20029;-73
2024/01/10 05:11:14;;;;;;;18.83;10.80;;;-5.10;99.90;;;;;;5057416;28;20037;-72
2024/01/10 05:13:40;;;;;;;30.70;27.67;;;-5.00;99.90;;;;;;5047261;28;20113;-73
2024/01/10 05:16:06;;;;;;;3.90;2.25;;;-5.00;99.90;;;;;;5049760;28;20064;-72
2024/01/10 05:18:32;;;;;;;3.13;2.90;;;-5.00;99.90;;;;;;5062410;28;20041;-72
2024/01/10 05:20:59;;;;;;;9.30;6.25;;;-5.00;99.90;;;;;;5042546;28;20032;-72
2024/01/10 05:23:24;;;;;;;8.18;4.53;;;-5.00;99.90;;;;;;5049593;28;20086;-72
2024/01/10 05:25:50;;;;;;;0.90;0.90;;;-5.00;99.90;;;;;;5059708;28;20116;-72
2024/01/10 05:28:16;;;;;;;0.47;0.47;;;-5.00;99.90;;;;;;5044301;28;20036;-72
2024/01/10 05:30:44;;;;;;;0.45;0.45;;;-5.00;99.90;;;;;;5053028;28;20135;-72
2024/01/10 05:33:10;;;;;;;5.57;5.00;;;-5.00;99.90;;;;;;5048584;28;20048;-72
2024/01/10 05:35:37;;;;;;;4.00;3.67;;;-5.00;99.90;;;;;;5062269;28;20040;-73
2024/01/10 05:38:03;;;;;;;7.68;6.15;;;-5.00;99.90;;;;;;5043476;28;20037;-74
2024/01/10 05:40:32;;;;;;;4.70;3.13;;;-5.00;99.90;;;;;;5068125;28;20541;-72
2024/01/10 05:43:00;;;;;;;5.03;4.47;;;-5.00;99.90;;;;;;5068018;28;20028;-74
2024/01/10 05:45:26;;;;;;;;;;;-5.00;99.90;;;;;;5066556;28;20411;-74
2024/01/10 05:47:52;;;;;;;3.55;3.35;;;-5.00;99.90;;;;;;5050644;28;19923;-73
2024/01/10 05:50:19;;;;;;;4.57;4.15;;;-5.00;99.90;;;;;;5061076;28;20051;-72
2024/01/10 05:52:45;;;;;;;5.10;4.72;;;-5.00;99.90;;;;;;5048391;28;20028;-73
2024/01/10 05:55:11;;;;;;;6.65;5.97;;;-5.00;99.90;;;;;;5063399;28;20127;-72
2024/01/10 05:57:37;;;;;;;32.28;27.77;;;-5.00;99.90;;;;;;5055394;28;20119;-72
2024/01/10 06:00:04;;;;;;;6.53;5.45;;;-5.00;99.90;;;;;;5046219;28;20514;-73
2024/01/10 06:02:30;;;;;;;15.98;11.02;;;-5.00;99.90;;;;;;5061381;28;20395;-72
2024/01/10 06:04:56;;;;;;;6.65;4.57;;;-5.00;99.90;;;;;;5060471;28;20091;-75
2024/01/10 06:07:22;;;;;;;25.13;22.77;;;-5.00;99.90;;;;;;5056474;28;20040;-72
2024/01/10 06:09:47;;;;;;;10.90;8.57;;;-5.00;99.90;;;;;;5065847;28;20115;-72
2024/01/10 06:12:13;;;;;;;3.83;3.30;;;-5.00;99.90;;;;;;5047129;28;20076;-72
2024/01/10 06:14:39;;;;;;;37.60;25.75;;;-5.00;99.90;;;;;;5059851;28;20044;-73
2024/01/10 06:17:05;;;;;;;60.80;35.25;;;-5.00;99.90;;;;;;5065261;28;20036;-73
2024/01/10 06:19:31;;;;;;;6.90;5.53;;;-5.00;99.90;;;;;;5066165;28;20482;-72
2024/01/10 06:21:58;;;;;;;2.47;2.28;;;-5.00;99.90;;;;;;5061662;28;20028;-74
2024/01/10 06:24:23;;;;;;;30.65;27.50;;;-5.00;99.90;;;;;;5055367;28;20044;-72
2024/01/10 06:26:52;;;;;;;3.30;3.00;;;-5.00;99.90;;;;;;5054740;28;20033;-74
2024/01/10 06:29:18;;;;;;;5.22;3.42;;;-5.00;99.90;;;;;;5061223;28;20048;-72
2024/01/10 06:31:44;;;;;;;4.28;3.92;;;-4.90;99.90;;;;;;5056812;28;20049;-75
2024/01/10 06:34:10;;;;;;;7.90;6.47;;;-4.90;99.90;;;;;;5045875;28;20155;-72
2024/01/10 06:36:36;;;;;;;1.05;1.05;;;-4.90;99.90;;;;;;5060532;28;20484;-72
2024/01/10 06:39:04;;;;;;;1.25;1.15;;;-4.90;99.90;;;;;;5047321;28;20119;-72
2024/01/10 06:41:30;;;;;;;0.50;0.50;;;-4.90;99.90;;;;;;5060795;28;20037;-72
2024/01/10 06:43:55;;;;;;;2.28;1.60;;;-4.90;99.90;;;;;;5055306;28;20048;-72
2024/01/10 06:46:21;;;;;;;9.93;5.40;;;-4.90;99.90;;;;;;5059543;28;20040;-72
2024/01/10 06:48:47;;;;;;;1.38;1.35;;;-4.90;99.90;;;;;;5052991;28;20060;-72
2024/01/10 06:51:13;;;;;;;14.38;6.25;;;-4.90;99.90;;;;;;5072564;28;20121;-72
2024/01/10 06:53:40;;;;;;;4.32;4.18;;;-4.90;99.90;;;;;;5068301;28;20044;-72
2024/01/10 06:56:06;;;;;;;18.60;14.73;;;-5.00;99.90;;;;;;5055491;28;20367;-73
2024/01/10 06:58:32;;;;;;;47.38;42.45;;;-5.00;99.90;;;;;;5070906;28;20037;-73
2024/01/10 07:01:00;;;;;;;2.25;2.05;;;-4.90;99.90;;;;;;5047539;28;20092;-74
2024/01/10 07:03:26;;;;;;;7.40;6.80;;;-5.00;99.90;;;;;;5046778;28;20440;-74
2024/01/10 07:05:52;;;;;;;1.02;1.02;;;-4.90;99.90;;;;;;5046790;28;20038;-74
2024/01/10 07:08:17;;;;;;;3.22;3.00;;;-4.90;99.90;;;;;;5054812;28;20090;-74
2024/01/10 07:10:43;;;;;;;2.20;2.05;;;-5.00;99.90;;;;;;5062904;28;20041;-74
2024/01/10 07:13:09;;;;;;;1.75;1.65;;;-5.00;99.90;;;;;;5053149;28;20086;-74
2024/01/10 07:15:35;;;;;;;4.38;1.30;;;-5.00;99.90;;;;;;5048839;28;20050;-74
2024/01/10 07:18:00;;;;;;;47.10;40.92;;;-5.00;99.90;;;;;;5072249;28;20119;-73
2024/01/10 07:20:26;;;;;;;185.23;118.43;;;-5.00;99.90;;;;;;5068432;28;20036;-74
2024/01/10 07:22:52;;;;;;;134.93;125.50;;;-5.00;99.90;;;;;;5039225;28;20906;-73
2024/01/10 07:25:17;;;;;;;1.10;0.65;;;-5.00;99.90;;;;;;5069024;28;20029;-73
2024/01/10 07:27:44;;;;;;;3.67;3.42;;;-5.00;99.90;;;;;;5043278;28;20541;-73
2024/01/10 07:30:18;;;;;;;7.00;4.03;;;-5.00;99.90;;;;;;5045108;28;20529;-73
2024/01/10 07:32:45;;;;;;;2.65;2.28;;;-5.00;99.90;;;;;;5040173;28;20040;-73
2024/01/10 07:35:13;;;;;;;3.88;1.00;;;-5.10;99.90;;;;;;5048672;28;20513;-73
2024/01/10 07:37:41;;;;;;;5.43;5.00;;;-5.00;99.90;;;;;;5070256;28;20047;-74
2024/01/10 07:40:10;;;;;;;6.13;5.70;;;-5.00;99.90;;;;;;5070656;28;20165;-74
2024/01/10 07:42:39;;;;;;;0.90;0.90;;;-5.10;99.90;;;;;;5062966;28;20499;-74
2024/01/10 07:45:06;;;;;;;3.83;3.53;;;-5.10;99.90;;;;;;5044805;28;20075;-73
2024/01/10 07:47:39;;;;;;;14.55;11.93;;;-5.00;99.90;;;;;;5057970;28;20049;-73
2024/01/10 07:50:09;;;;;;;184.18;129.70;;;-5.10;99.90;;;;;;5061552;28;20044;-73
2024/01/10 07:52:36;;;;;;;6.82;6.15;;;-5.00;99.90;;;;;;5063111;28;20567;-73
2024/01/10 07:55:06;;;;;;;40.80;38.63;;;-5.10;99.90;;;;;;5065793;28;20036;-73
2024/01/10 07:57:36;;;;;;;140.77;129.97;;;-5.00;99.90;;;;;;5046963;28;20033;-73
2024/01/10 08:00:03;;;;;;;7.50;3.83;;;-5.00;99.90;;;;;;5048648;28;20544;-73
2024/01/10 08:02:33;;;;;;;23.80;21.33;;;-5.00;99.90;;;;;;5045060;28;20608;-73
2024/01/10 08:05:08;;;;;;;65.90;60.97;;;-5.00;99.90;;;;;;5043448;28;21096;-73
2024/01/10 08:07:36;;;;;;;8.30;4.05;;;-5.00;99.90;;;;;;5052134;28;20153;-72
2024/01/10 08:10:09;;;;;;;3.50;2.15;;;-5.00;99.90;;;;;;5045045;28;20518;-72
2024/01/10 08:12:39;;;;;;;60.70;55.65;;;-5.00;99.90;;;;;;5039874;28;20102;-72
2024/01/10 08:15:06;;;;;;;2.63;0.95;;;-4.90;99.90;;;;;;5054221;28;20098;-72
2024/01/10 08:17:32;;;;;;;115.27;103.93;;;-4.90;99.90;;;;;;5063884;28;20498;-74
2024/01/10 08:19:58;;;;;;;66.18;60.20;;;-4.90;99.90;;;;;;5041425;28;20908;-73
2024/01/10 08:22:24;;;;;;;565.87;503.13;;;-4.90;99.90;;;;;;5065308;28;20127;-74
2024/01/10 08:24:50;;;;;;;1.10;1.05;;;-4.80;99.90;;;;;;5056419;28;20055;-75
2024/01/10 08:27:17;;;;;;;252.70;228.53;;;-4.80;99.90;;;;;;5065568;28;20036;-75
2024/01/10 08:29:44;;;;;;;114.17;104.63;;;-4.80;99.90;;;;;;5049490;28;20060;-73
2024/01/10 08:32:10;;;;;;;211.87;155.57;;;-4.70;99.90;;;;;;5066111;28;20538;-74
2024/01/10 08:34:36;;;;;;;220.57;167.97;;;-4.70;99.90;;;;;;5061027;28;20040;-77
2024/01/10 08:37:02;;;;;;;258.50;230.50;;;-4.70;99.90;;;;;;5050026;28;20043;-74
2024/01/10 08:39:30;;;;;;;317.53;234.67;;;-4.60;99.90;;;;;;5067040;28;20102;-72
2024/01/10 08:41:56;;;;;;;26.90;25.20;;;-4.60;99.90;;;;;;5049708;28;20038;-72
2024/01/10 08:44:22;;;;;;;341.73;310.90;;;-4.60;99.90;;;;;;5066879;28;20055;-73
2024/01/10 08:46:50;;;;;;;1.42;1.40;;;-4.50;99.90;;;;;;5065893;28;20041;-72
2024/01/10 08:49:16;;;;;;;62.17;38.47;;;-4.50;99.90;;;;;;5044966;28;20538;-72
2024/01/10 08:51:43;;;;;;;234.27;213.77;;;-4.50;99.90;;;;;;5045920;28;20040;-72
2024/01/10 08:54:09;;;;;;;14.82;8.32;;;-4.50;99.90;;;;;;5066317;28;20044;-72
2024/01/10 08:56:35;;;;;;;15.15;14.00;;;-4.40;99.90;;;;;;5047166;28;20032;-72
2024/01/10 08:59:01;;;;;;;143.33;126.93;;;-4.40;99.90;;;;;;5045468;28;20425;-73
2024/01/10 09:01:26;;;;;;;52.80;42.13;;;-4.40;99.90;;;;;;5049384;28;20094;-72
2024/01/10 09:03:52;;;;;;;1.35;1.35;;;-4.40;99.90;;;;;;5047691;28;20138;-72
2024/01/10 09:06:18;;;;;;;0.88;0.85;;;-4.30;99.90;;;;;;5065770;28;20045;-73
2024/01/10 09:08:43;;;;;;;17.45;10.32;;;-4.30;99.90;;;;;;5065222;28;20037;-73
2024/01/10 09:11:09;;;;;;;0.47;0.47;;;-4.30;99.90;;;;;;5066153;28;20041;-73
2024/01/10 09:13:37;;;;;;;1.30;1.30;;;-4.30;99.90;;;;;;5071958;28;20070;-73
2024/01/10 09:16:04;;;;;;;6.43;5.93;;;-4.20;99.90;;;;;;5062745;28;20268;-73
2024/01/10 09:18:29;;;;;;;8.15;4.32;;;-4.20;99.90;;;;;;5040938;28;20041;-73
2024/01/10 09:20:55;;;;;;;101.23;64.43;;;-4.20;99.90;;;;;;5066348;28;20039;-73
2024/01/10 09:23:21;;;;;;;109.63;83.43;;;-4.20;99.90;;;;;;5046681;28;20101;-72
2024/01/10 09:25:46;;;;;;;235.87;164.30;;;-4.10;99.90;;;;;;5048244;28;20055;-72
2024/01/10 09:28:12;;;;;;;436.70;390.30;;;-4.10;99.90;;;;;;5047203;28;20186;-72
2024/01/10 09:30:38;;;;;;;2.63;2.08;;;-4.10;99.90;;;;;;5062359;28;20067;-74
2024/01/10 09:33:04;;;;;;;109.03;66.77;;;-4.10;99.90;;;;;;5049386;28;20052;-73
2024/01/10 09:35:30;;;;;;;197.40;169.70;;;-4.00;99.90;;;;;;5046081;28;20049;-73
2024/01/10 09:37:56;;;;;;;32.65;30.08;;;-4.00;99.90;;;;;;5060638;28;20032;-73
2024/01/10 09:40:21;;;;;;;284.63;256.77;;;-3.90;99.90;;;;;;5049117;28;20032;-73
2024/01/10 09:42:54;;;;;;;1586.60;999.90;;;-3.90;99.90;;;;;;5043955;28;20039;-72
2024/01/10 09:45:21;;;;;;;740.80;596.83;;;-3.80;99.90;;;;;;5063320;28;20075;-73
2024/01/10 09:47:53;;;;;;;5.68;2.03;;;-3.80;99.90;;;;;;5065962;28;20044;-73
2024/01/10 09:50:20;;;;;;;31.88;20.98;;;-3.80;99.90;;;;;;5065878;28;20917;-72
2024/01/10 09:53:07;;;;;;;88.35;80.38;;;-3.70;99.90;;;;;;5046383;28;20040;-72
2024/01/10 09:55:36;;;;;;;203.20;185.17;;;-3.60;99.90;;;;;;5055084;28;20048;-72
2024/01/10 09:58:05;;;;;;;;;;;-3.60;99.90;;;;;;5056304;28;20040;-72
2024/01/10 10:00:37;;;;;;;182.17;165.47;;;-3.50;99.90;;;;;;5067857;28;19920;-72
2024/01/10 10:03:07;;;;;;;270.37;224.40;;;-3.40;99.90;;;;;;5063136;28;20121;-72
2024/01/10 10:05:34;;;;;;;359.50;325.03;;;-3.40;99.90;;;;;;5046765;28;20040;-72
2024/01/10 10:08:00;;;;;;;359.00;277.40;;;-3.30;99.90;;;;;;5061818;28;20259;-73
2024/01/10 10:10:27;;;;;;;502.00;309.43;;;-3.30;99.90;;;;;;5053061;28;20502;-73
2024/01/10 10:12:56;;;;;;;504.50;425.57;;;-3.20;99.90;;;;;;5048866;28;20040;-73
2024/01/10 10:15:23;;;;;;;6.53;5.70;;;-3.20;99.90;;;;;;5065497;28;20174;-73
2024/01/10 10:17:50;;;;;;;197.73;180.05;;;-3.10;99.90;;;;;;5063940;28;20040;-74
2024/01/10 10:20:27;;;;;;;92.30;64.10;;;-3.10;99.90;;;;;;5062230;28;20033;-73
2024/01/10 10:23:07;;;;;;;604.00;463.10;;;-3.00;99.90;;;;;;5061031;28;20036;-73
2024/01/10 10:25:32;;;;;;;235.80;169.20;;;-3.00;99.90;;;;;;5059840;28;20040;-73
2024/01/10 10:28:02;;;;;;;1327.37;999.90;;;-2.90;99.90;;;;;;5061105;28;20044;-74
2024/01/10 10:30:30;;;;;;;448.80;402.67;;;-2.80;99.90;;;;;;5050605;28;20486;-74
2024/01/10 10:32:55;;;;;;;1513.70;999.90;;;-2.80;99.90;;;;;;5062388;28;20052;-73
2024/01/10 10:35:21;;;;;;;1297.97;999.90;;;-2.80;99.90;;;;;;5049200;28;20451;-74
2024/01/10 10:37:52;;;;;;;281.67;257.63;;;-2.80;99.90;;;;;;5066428;28;20063;-74
2024/01/10 10:40:19;;;;;;;1254.23;999.90;;;-2.70;99.90;;;;;;5050101;28;20107;-74
2024/01/10 10:42:46;;;;;;;1611.17;999.90;;;-2.60;99.90;;;;;;5043093;28;20040;-75
2024/01/10 10:45:17;;;;;;;439.37;391.43;;;-2.60;99.90;;;;;;5060792;28;20032;-73
2024/01/10 10:47:46;;;;;;;1682.73;999.90;;;-2.60;99.90;;;;;;5058184;28;20036;-73
2024/01/10 10:50:32;;;;;;;;;;;-2.50;99.90;;;;;;5052174;28;20064;-73
2024/01/10 10:52:58;;;;;;;1650.10;999.90;;;-2.50;99.90;;;;;;5049216;28;19916;-74
2024/01/10 10:55:26;;;;;;;1685.27;999.90;;;-2.30;99.90;;;;;;5050738;28;20089;-74
2024/01/10 10:57:53;;;;;;;541.58;464.60;;;-2.30;99.90;;;;;;5061299;28;20132;-74
2024/01/10 11:00:21;;;;;;;1608.43;999.90;;;-2.30;99.90;;;;;;5068665;28;20119;-73
2024/01/10 11:02:47;;;;;;;491.88;423.10;;;-2.20;99.90;;;;;;5052158;28;20040;-73
2024/01/10 11:05:13;;;;;;;1644.53;999.90;;;-2.10;99.90;;;;;;5055086;28;20481;-73
2024/01/10 11:07:44;;;;;;;512.30;361.47;;;-2.10;99.90;;;;;;5083496;28;20059;-73
2024/01/10 11:10:31;;;;;;;454.03;389.50;;;-2.00;99.90;;;;;;5075453;28;20755;-74
2024/01/10 11:13:14;;;;;;;368.90;283.13;;;-2.00;99.90;;;;;;5047096;28;20044;-74
2024/01/10 11:16:13;;;;;;;398.43;319.20;;;-1.90;99.90;;;;;;5062555;28;20112;-73
2024/01/10 11:19:10;;;;;;;1597.37;999.90;;;-1.90;99.90;;;;;;5042362;28;20633;-74
2024/01/10 11:21:39;;;;;;;463.20;253.07;;;-1.80;99.90;;;;;;5067569;28;20034;-73
2024/01/10 11:24:06;;;;;;;500.63;273.75;;;-1.70;99.90;;;;;;5051800;28;20033;-74
2024/01/10 11:26:33;;;;;;;404.30;270.30;;;-1.60;99.90;;;;;;5065553;28;20110;-74
2024/01/10 11:29:00;;;;;;;678.95;526.40;;;-1.60;99.90;;;;;;5053946;28;20042;-74
2024/01/10 11:31:30;;;;;;;637.47;488.98;;;-1.60;99.90;;;;;;5047956;28;20040;-75
2024/01/10 11:34:00;;;;;;;450.97;341.30;;;-1.50;99.90;;;;;;5068421;28;20040;-74
2024/01/10 11:36:28;;;;;;;731.10;564.63;;;-1.50;99.90;;;;;;5062828;28;20041;-74
2024/01/10 11:39:05;;;;;;;474.08;325.52;;;-1.40;99.90;;;;;;5063863;28;20052;-75
2024/01/10 11:41:34;;;;;;;561.67;398.77;;;-1.40;99.90;;;;;;5056990;28;20037;-76
2024/01/10 11:44:13;;;;;;;654.47;436.05;;;-1.30;99.90;;;;;;5063343;28;20121;-74
2024/01/10 11:46:43;;;;;;;883.10;560.77;;;-1.30;99.90;;;;;;5051176;28;20119;-75
2024/01/10 11:49:17;;;;;;;1198.37;969.63;;;-1.20;99.90;;;;;;5068088;28;20083;-76
2024/01/10 11:51:44;;;;;;;1603.37;999.90;;;-1.20;99.90;;;;;;5056875;28;20052;-75
2024/01/10 11:54:10;;;;;;;1214.10;999.90;;;-1.20;99.90;;;;;;5037031;28;20041;-76
2024/01/10 11:56:40;;;;;;;704.15;377.60;;;-1.20;99.90;;;;;;5047880;28;20437;-76
2024/01/10 11:59:11;;;;;;;682.17;604.17;;;-1.10;99.90;;;;;;5063611;28;20090;-76
2024/01/10 12:01:38;;;;;;;1058.33;930.33;;;-1.10;99.90;;;;;;5051376;28;20509;-76
2024/01/10 12:04:04;;;;;;;1354.20;999.90;;;-1.00;99.90;;;;;;5051659;28;20072;-76
2024/01/10 12:06:39;;;;;;;1707.43;999.90;;;-1.00;99.90;;;;;;5051545;28;20029;-76
2024/01/10 12:09:08;;;;;;;621.60;483.57;;;-1.00;99.90;;;;;;5068243;28;20044;-76
2024/01/10 12:11:39;;;;;;;1334.80;999.90;;;-0.90;99.90;;;;;;5080761;28;20055;-75
2024/01/10 12:14:05;;;;;;;6.30;3.55;;;-0.90;99.90;;;;;;5050841;28;20151;-75
2024/01/10 12:16:32;;;;;;;14.15;5.78;;;-0.90;99.90;;;;;;5066522;28;20044;-76
2024/01/10 12:18:58;;;;;;;13.27;4.50;;;-0.80;99.90;;;;;;5050290;28;20032;-77
2024/01/10 12:21:23;;;;;;;4.35;3.97;;;-0.80;99.90;;;;;;5067153;28;20078;-75
2024/01/10 12:23:51;;;;;;;11.65;4.43;;;-0.80;99.90;;;;;;5062281;28;20489;-76
2024/01/10 12:26:18;;;;;;;3.00;2.58;;;-0.80;99.90;;;;;;5065551;28;20119;-77
2024/01/10 12:28:57;;;;;;;2.78;2.53;;;-0.70;99.90;;;;;;5060170;28;20044;-74
2024/01/10 12:31:26;;;;;;;6.07;4.63;;;-0.70;99.90;;;;;;5048865;28;20036;-75
2024/01/10 12:33:52;;;;;;;3.35;3.15;;;-0.60;99.90;;;;;;5065144;28;20036;-75
2024/01/10 12:36:19;;;;;;;13.10;5.63;;;-0.60;99.90;;;;;;5057811;28;20085;-73